Time;durP1;ratioP1;P1;durP2;ratioP2;P2;SDS_P1;SDS_P2;PMS_P1;PMS_P2;Temp;Humidity;BMP_temperature;BMP_pressure;BME280_temperature;BME280_humidity;BME280_pressure;Samples;Min_cycle;Max_cycle;Signal;HPM_P1;HPM_P2
2024/04/22 00:02:01;;;;;;;11.63;4.33;;;;;;;;;;5376546;26;20007;-53
2024/04/22 00:04:26;;;;;;;9.20;4.37;;;;;;;;;;5368512;26;20008;-58
2024/04/22 00:06:52;;;;;;;7.35;3.97;;;;;;;;;;5380112;26;20000;-56
2024/04/22 00:09:18;;;;;;;7.03;3.97;;;;;;;;;;5374982;26;20001;-55
2024/04/22 00:11:43;;;;;;;11.90;4.50;;;;;;;;;;5374385;26;20009;-54
2024/04/22 00:14:11;;;;;;;7.73;4.27;;;;;;;;;;5376262;26;20333;-53
2024/04/22 00:16:37;;;;;;;8.65;4.18;;;;;;;;;;5377873;26;19996;-56
2024/04/22 00:19:02;;;;;;;10.05;4.43;;;;;;;;;;5374767;26;20014;-55
2024/04/22 00:21:28;;;;;;;11.90;4.17;;;;;;;;;;5378077;26;20019;-53
2024/04/22 00:23:53;;;;;;;8.77;4.37;;;;;;;;;;5382568;26;20223;-55
2024/04/22 00:26:18;;;;;;;9.17;3.90;;;;;;;;;;5376676;26;20001;-56
2024/04/22 00:28:43;;;;;;;6.90;3.87;;;;;;;;;;5377509;26;20019;-55
2024/04/22 00:31:09;;;;;;;8.20;4.25;;;;;;;;;;5375240;26;20040;-56
2024/04/22 00:33:34;;;;;;;12.70;4.53;;;;;;;;;;5374301;26;20093;-54
2024/04/22 00:36:00;;;;;;;11.10;4.77;;;;;;;;;;5379594;26;20012;-53
2024/04/22 00:38:26;;;;;;;6.83;3.97;;;;;;;;;;5382051;26;20267;-57
2024/04/22 00:40:51;;;;;;;11.73;5.00;;;;;;;;;;5382827;26;20040;-52
2024/04/22 00:43:17;;;;;;;6.93;4.20;;;;;;;;;;5378149;26;20005;-56
2024/04/22 00:45:43;;;;;;;7.67;4.27;;;;;;;;;;5379863;26;20026;-56
2024/04/22 00:48:08;;;;;;;9.60;4.75;;;;;;;;;;5374652;26;20361;-54
2024/04/22 00:50:34;;;;;;;7.40;4.27;;;;;;;;;;5385353;26;19997;-56
2024/04/22 00:52:59;;;;;;;11.37;4.27;;;;;;;;;;5381375;26;20004;-56
2024/04/22 00:55:26;;;;;;;7.72;4.22;;;;;;;;;;5383406;26;20047;-55
2024/04/22 00:57:55;;;;;;;6.30;3.92;;;;;;;;;;5385995;26;20022;-57
2024/04/22 01:00:21;;;;;;;8.98;4.05;;;;;;;;;;5379484;26;20019;-57
2024/04/22 01:02:48;;;;;;;12.95;5.38;;;;;;;;;;5380296;26;20020;-57
2024/04/22 01:05:14;;;;;;;7.57;3.83;;;;;;;;;;5385020;26;20000;-56
2024/04/22 01:07:39;;;;;;;9.67;4.77;;;;;;;;;;5384364;26;20012;-53
2024/04/22 01:10:06;;;;;;;9.73;5.07;;;;;;;;;;5377722;26;20263;-55
2024/04/22 01:12:32;;;;;;;8.88;4.53;;;;;;;;;;5380055;26;20240;-56
2024/04/22 01:14:57;;;;;;;7.93;3.55;;;;;;;;;;5376563;26;19996;-57
2024/04/22 01:17:33;;;;;;;11.40;5.20;;;;;;;;;;5383089;26;20004;-54
2024/04/22 01:19:58;;;;;;;6.80;3.97;;;;;;;;;;5381247;26;20000;-53
2024/04/22 01:22:24;;;;;;;10.38;4.07;;;;;;;;;;5381090;26;20020;-57
2024/04/22 01:24:50;;;;;;;7.73;4.07;;;;;;;;;;5379181;26;20004;-53
2024/04/22 01:27:15;;;;;;;10.70;4.60;;;;;;;;;;5378045;26;20023;-57
2024/04/22 01:29:41;;;;;;;11.30;4.32;;;;;;;;;;5377907;26;19997;-56
2024/04/22 01:32:08;;;;;;;8.85;4.55;;;;;;;;;;5371612;26;20012;-56
2024/04/22 01:34:33;;;;;;;7.75;4.15;;;;;;;;;;5378158;26;20118;-57
2024/04/22 01:36:58;;;;;;;8.30;4.80;;;;;;;;;;5383044;26;20051;-57
2024/04/22 01:39:25;;;;;;;10.23;4.63;;;;;;;;;;5384054;26;20047;-57
2024/04/22 01:41:51;;;;;;;7.67;3.97;;;;;;;;;;5376905;26;20009;-58
2024/04/22 01:44:16;;;;;;;7.28;4.07;;;;;;;;;;5383385;26;20280;-52
2024/04/22 01:46:42;;;;;;;11.80;4.07;;;;;;;;;;5380261;26;20000;-54
2024/04/22 01:49:08;;;;;;;14.68;4.45;;;;;;;;;;5378727;26;20027;-56
2024/04/22 01:51:34;;;;;;;8.85;4.43;;;;;;;;;;5383576;26;20012;-57
2024/04/22 01:53:59;;;;;;;12.30;4.47;;;;;;;;;;5378601;26;20058;-55
2024/04/22 01:56:25;;;;;;;7.18;3.90;;;;;;;;;;5379023;26;20043;-57
2024/04/22 01:58:51;;;;;;;9.40;4.15;;;;;;;;;;5382630;26;20015;-57
2024/04/22 02:01:17;;;;;;;8.30;4.00;;;;;;;;;;5379696;26;20034;-57
2024/04/22 02:03:42;;;;;;;8.60;4.33;;;;;;;;;;5377488;26;20004;-56
2024/04/22 02:06:08;;;;;;;7.95;4.00;;;;;;;;;;5383964;26;20008;-55
2024/04/22 02:08:33;;;;;;;7.53;4.70;;;;;;;;;;5383134;26;20066;-57
2024/04/22 02:10:59;;;;;;;8.45;4.20;;;;;;;;;;5385355;26;20004;-56
2024/04/22 02:13:24;;;;;;;9.00;4.63;;;;;;;;;;5380383;26;20023;-52
2024/04/22 02:15:50;;;;;;;7.33;4.57;;;;;;;;;;5378732;26;20035;-53
2024/04/22 02:18:17;;;;;;;12.30;4.50;;;;;;;;;;5381264;26;20271;-58
2024/04/22 02:20:43;;;;;;;7.63;3.85;;;;;;;;;;5380454;26;19997;-57
2024/04/22 02:23:08;;;;;;;10.45;4.90;;;;;;;;;;5384800;26;20044;-57
2024/04/22 02:25:34;;;;;;;12.70;4.50;;;;;;;;;;5354043;26;20009;-57
2024/04/22 02:27:59;;;;;;;11.70;4.57;;;;;;;;;;5383530;26;20005;-56
2024/04/22 02:30:25;;;;;;;9.10;4.53;;;;;;;;;;5385722;26;20012;-57
2024/04/22 02:32:50;;;;;;;12.93;4.57;;;;;;;;;;5386707;26;20008;-57
2024/04/22 02:35:16;;;;;;;8.47;4.43;;;;;;;;;;5381598;26;20000;-57
2024/04/22 02:37:41;;;;;;;7.47;4.30;;;;;;;;;;5381092;26;20012;-55
2024/04/22 02:40:07;;;;;;;7.10;3.95;;;;;;;;;;5388014;26;20005;-55
2024/04/22 02:42:32;;;;;;;8.27;4.70;;;;;;;;;;5387211;26;20015;-54
2024/04/22 02:44:58;;;;;;;7.38;4.30;;;;;;;;;;5381854;26;20051;-55
2024/04/22 02:47:23;;;;;;;9.00;4.60;;;;;;;;;;5380881;26;20004;-53
2024/04/22 02:49:48;;;;;;;8.97;4.60;;;;;;;;;;5382508;26;20009;-52
2024/04/22 02:52:14;;;;;;;9.73;4.90;;;;;;;;;;5389120;26;20058;-55
2024/04/22 02:54:39;;;;;;;7.07;4.17;;;;;;;;;;5382121;26;20039;-56
2024/04/22 02:57:05;;;;;;;10.30;5.23;;;;;;;;;;5381445;26;20303;-52
2024/04/22 02:59:31;;;;;;;11.65;5.53;;;;;;;;;;5380972;26;20000;-54
2024/04/22 03:01:56;;;;;;;11.20;4.90;;;;;;;;;;5391375;26;20038;-59
2024/04/22 03:04:21;;;;;;;12.53;4.97;;;;;;;;;;5388127;26;20058;-52
2024/04/22 03:06:47;;;;;;;8.67;4.60;;;;;;;;;;5386574;26;20050;-55
2024/04/22 03:09:12;;;;;;;11.23;4.43;;;;;;;;;;5387360;26;20251;-54
2024/04/22 03:11:38;;;;;;;10.63;4.70;;;;;;;;;;5388348;26;20032;-55
2024/04/22 03:14:03;;;;;;;9.43;4.60;;;;;;;;;;5380328;26;20234;-55
2024/04/22 03:16:29;;;;;;;12.87;5.30;;;;;;;;;;5384874;26;20238;-56
2024/04/22 03:18:54;;;;;;;11.93;5.33;;;;;;;;;;5381898;26;20004;-55
2024/04/22 03:21:20;;;;;;;9.93;4.78;;;;;;;;;;5385994;26;20016;-54
2024/04/22 03:23:45;;;;;;;10.07;4.70;;;;;;;;;;5384308;26;20011;-55
2024/04/22 03:26:11;;;;;;;9.35;4.90;;;;;;;;;;5380205;26;20050;-56
2024/04/22 03:28:39;;;;;;;9.00;5.00;;;;;;;;;;5382496;26;20013;-55
2024/04/22 03:31:05;;;;;;;9.25;4.57;;;;;;;;;;5382199;26;20235;-55
2024/04/22 03:33:30;;;;;;;6.68;3.47;;;;;;;;;;5381034;26;20008;-53
2024/04/22 03:36:02;;;;;;;10.90;5.50;;;;;;;;;;5381330;26;20000;-57
2024/04/22 03:38:28;;;;;;;11.70;4.72;;;;;;;;;;5386252;26;20016;-56
2024/04/22 03:40:53;;;;;;;10.03;4.60;;;;;;;;;;5391466;26;20008;-55
2024/04/22 03:43:19;;;;;;;9.65;4.18;;;;;;;;;;5380212;26;20005;-58
2024/04/22 03:49:50;;;;;;;16.53;5.27;;;;;;;;;;5383809;26;20011;-54
2024/04/22 03:51:14;;;;;;;10.57;4.97;;;;;;;;;;5382941;26;20000;-56
2024/04/22 03:53:40;;;;;;;6.03;4.03;;;;;;;;;;5382953;26;19997;-55
2024/04/22 03:56:05;;;;;;;8.93;5.00;;;;;;;;;;5374665;26;20004;-57
2024/04/22 03:58:31;;;;;;;12.60;5.10;;;;;;;;;;5379091;26;20000;-56
2024/04/22 04:00:56;;;;;;;10.00;4.38;;;;;;;;;;5383377;26;20000;-57
2024/04/22 04:03:21;;;;;;;12.80;5.33;;;;;;;;;;5383721;26;20000;-56
2024/04/22 04:05:47;;;;;;;11.63;4.63;;;;;;;;;;5380331;26;20012;-56
2024/04/22 04:08:12;;;;;;;6.97;4.13;;;;;;;;;;5347440;26;20009;-57
2024/04/22 04:10:37;;;;;;;9.50;4.17;;;;;;;;;;5383581;26;20009;-56
2024/04/22 04:13:03;;;;;;;7.97;4.65;;;;;;;;;;5377845;26;20049;-55
2024/04/22 04:15:29;;;;;;;5.17;2.93;;;;;;;;;;5378169;26;20023;-57
2024/04/22 04:17:55;;;;;;;10.15;5.05;;;;;;;;;;5387290;26;20224;-56
2024/04/22 04:20:21;;;;;;;6.93;4.10;;;;;;;;;;5382796;26;20055;-56
2024/04/22 04:22:46;;;;;;;9.52;4.18;;;;;;;;;;5384539;26;20056;-54
2024/04/22 04:25:12;;;;;;;9.13;4.80;;;;;;;;;;5373213;26;20009;-55
2024/04/22 04:27:37;;;;;;;8.27;4.03;;;;;;;;;;5382719;26;20013;-56
2024/04/22 04:30:03;;;;;;;11.10;4.33;;;;;;;;;;5381919;26;20012;-53
2024/04/22 04:32:30;;;;;;;8.07;4.30;;;;;;;;;;5386383;26;20322;-56
2024/04/22 04:34:55;;;;;;;10.90;4.28;;;;;;;;;;5377271;26;20008;-56
2024/04/22 04:37:21;;;;;;;8.63;4.10;;;;;;;;;;5390863;26;22070;-57
2024/04/22 04:39:46;;;;;;;12.88;4.22;;;;;;;;;;5382814;26;20021;-55
2024/04/22 04:42:12;;;;;;;11.00;3.93;;;;;;;;;;5355805;26;20008;-56
2024/04/22 04:44:37;;;;;;;5.87;3.13;;;;;;;;;;5382554;26;20276;-54
2024/04/22 04:47:03;;;;;;;9.20;3.93;;;;;;;;;;5383808;26;20004;-54
2024/04/22 04:49:28;;;;;;;7.37;3.90;;;;;;;;;;5380987;26;20322;-57
2024/04/22 04:51:54;;;;;;;5.43;2.83;;;;;;;;;;5374207;26;20240;-55
2024/04/22 04:54:19;;;;;;;8.82;3.63;;;;;;;;;;5374368;26;20033;-55
2024/04/22 04:56:45;;;;;;;11.10;4.37;;;;;;;;;;5380633;26;20012;-57
2024/04/22 04:59:10;;;;;;;7.70;3.77;;;;;;;;;;5381080;26;20333;-56
2024/04/22 05:01:36;;;;;;;6.10;3.33;;;;;;;;;;5386746;26;20620;-56
2024/04/22 05:04:02;;;;;;;7.87;4.10;;;;;;;;;;5390176;26;20055;-56
2024/04/22 05:06:29;;;;;;;6.93;3.53;;;;;;;;;;5385842;26;20024;-56
2024/04/22 05:08:54;;;;;;;9.35;3.83;;;;;;;;;;5378594;26;20013;-57
2024/04/22 05:11:20;;;;;;;7.25;3.83;;;;;;;;;;5382705;26;20052;-56
2024/04/22 05:13:45;;;;;;;9.43;3.83;;;;;;;;;;5382967;26;20012;-53
2024/04/22 05:16:11;;;;;;;8.90;3.28;;;;;;;;;;5381373;26;20051;-55
2024/04/22 05:18:36;;;;;;;7.93;3.37;;;;;;;;;;5386183;26;20016;-57
2024/04/22 05:21:02;;;;;;;10.93;3.40;;;;;;;;;;5388560;26;20263;-56
2024/04/22 05:23:27;;;;;;;8.67;3.60;;;;;;;;;;5387960;26;20004;-56
2024/04/22 05:25:53;;;;;;;7.37;3.10;;;;;;;;;;5376379;26;20234;-56
2024/04/22 05:28:18;;;;;;;5.50;3.07;;;;;;;;;;5381326;26;20231;-56
2024/04/22 05:30:44;;;;;;;8.17;3.00;;;;;;;;;;5379607;26;20355;-54
2024/04/22 05:36:12;;;;;;;5.55;2.78;;;;;;;;;;5371028;26;20024;-57
2024/04/22 05:38:39;;;;;;;6.90;2.85;;;;;;;;;;5381700;26;20009;-56
2024/04/22 05:41:05;;;;;;;9.68;3.47;;;;;;;;;;5377569;26;19997;-56
2024/04/22 05:43:30;;;;;;;10.43;2.73;;;;;;;;;;5378388;26;20011;-56
2024/04/22 05:45:56;;;;;;;7.00;3.60;;;;;;;;;;5382226;26;20012;-57
2024/04/22 05:48:22;;;;;;;8.60;3.75;;;;;;;;;;5380275;26;19997;-57
2024/04/22 05:50:47;;;;;;;4.87;2.77;;;;;;;;;;5376413;26;19996;-57
2024/04/22 05:53:13;;;;;;;8.43;3.03;;;;;;;;;;5375988;26;19996;-54
2024/04/22 05:55:39;;;;;;;8.13;2.85;;;;;;;;;;5384372;26;20012;-56
2024/04/22 05:58:04;;;;;;;11.10;3.22;;;;;;;;;;5381665;26;19993;-51
2024/04/22 06:00:30;;;;;;;8.33;3.33;;;;;;;;;;5383685;26;20008;-57
2024/04/22 06:02:56;;;;;;;6.50;3.33;;;;;;;;;;5382993;26;20279;-56
2024/04/22 06:05:21;;;;;;;6.30;2.60;;;;;;;;;;5380488;26;20004;-55
2024/04/22 06:07:46;;;;;;;5.00;2.80;;;;;;;;;;5365076;26;20050;-57
2024/04/22 06:10:12;;;;;;;6.50;2.47;;;;;;;;;;5384088;26;20004;-58
2024/04/22 06:12:37;;;;;;;5.07;2.72;;;;;;;;;;5386950;26;20000;-57
2024/04/22 06:15:03;;;;;;;4.13;2.45;;;;;;;;;;5383863;26;20011;-56
2024/04/22 06:17:29;;;;;;;4.93;2.50;;;;;;;;;;5388041;26;20004;-57
2024/04/22 06:19:54;;;;;;;7.93;3.47;;;;;;;;;;5385294;26;20015;-58
2024/04/22 06:22:19;;;;;;;5.47;2.70;;;;;;;;;;5381852;26;20047;-57
2024/04/22 06:24:44;;;;;;;6.27;2.43;;;;;;;;;;5380664;26;20000;-57
2024/04/22 06:27:10;;;;;;;8.77;2.50;;;;;;;;;;5385803;26;20004;-56
2024/04/22 06:29:35;;;;;;;9.57;2.37;;;;;;;;;;5395484;26;20134;-54
2024/04/22 06:32:01;;;;;;;6.22;2.50;;;;;;;;;;5390864;26;20226;-53
2024/04/22 06:34:26;;;;;;;17.70;2.90;;;;;;;;;;5396493;26;20028;-54
2024/04/22 06:36:52;;;;;;;6.70;2.47;;;;;;;;;;5389358;26;20050;-56
2024/04/22 06:39:17;;;;;;;6.40;2.50;;;;;;;;;;5395315;26;20234;-55
2024/04/22 06:41:43;;;;;;;4.53;2.60;;;;;;;;;;5363205;26;20275;-58
2024/04/22 06:44:08;;;;;;;3.97;2.15;;;;;;;;;;5396790;26;20007;-54
2024/04/22 06:46:34;;;;;;;8.85;3.25;;;;;;;;;;5390857;26;20015;-58
2024/04/22 06:48:59;;;;;;;18.13;3.13;;;;;;;;;;5391177;26;20016;-56
2024/04/22 06:51:25;;;;;;;5.50;2.20;;;;;;;;;;5391588;26;20227;-57
2024/04/22 06:53:50;;;;;;;5.90;2.38;;;;;;;;;;5395888;26;20000;-56
2024/04/22 06:56:16;;;;;;;4.87;2.47;;;;;;;;;;5393806;26;20012;-57
2024/04/22 06:58:41;;;;;;;4.70;2.50;;;;;;;;;;5392946;26;20052;-58
2024/04/22 07:01:07;;;;;;;9.77;3.47;;;;;;;;;;5393390;26;20343;-54
2024/04/22 07:03:32;;;;;;;11.82;3.10;;;;;;;;;;5395376;26;19996;-56
2024/04/22 07:05:57;;;;;;;6.37;2.30;;;;;;;;;;5391615;26;20019;-57
2024/04/22 07:08:23;;;;;;;9.40;2.40;;;;;;;;;;5392021;26;20015;-57
2024/04/22 07:10:48;;;;;;;10.63;2.43;;;;;;;;;;5392667;26;20037;-53
2024/04/22 07:13:14;;;;;;;6.03;2.38;;;;;;;;;;5397036;26;20011;-54
2024/04/22 07:15:40;;;;;;;7.60;1.90;;;;;;;;;;5391125;26;20038;-56
2024/04/22 07:18:06;;;;;;;4.47;1.93;;;;;;;;;;5393294;26;20000;-57
2024/04/22 07:20:31;;;;;;;6.45;1.80;;;;;;;;;;5391452;26;20007;-56
2024/04/22 07:22:57;;;;;;;8.60;2.88;;;;;;;;;;5395563;26;19996;-56
2024/04/22 07:25:22;;;;;;;8.07;2.77;;;;;;;;;;5392876;26;20001;-52
2024/04/22 07:27:47;;;;;;;6.90;2.83;;;;;;;;;;5392342;26;20041;-58
2024/04/22 07:30:14;;;;;;;3.85;2.10;;;;;;;;;;5390198;26;19996;-52
2024/04/22 07:32:40;;;;;;;6.87;2.37;;;;;;;;;;5391119;26;20008;-56
2024/04/22 07:35:06;;;;;;;7.88;2.13;;;;;;;;;;5388718;26;20298;-56
2024/04/22 07:37:36;;;;;;;8.95;2.78;;;;;;;;;;5395606;26;20027;-55
2024/04/22 07:40:12;;;;;;;3.50;2.10;;;;;;;;;;5390769;26;20036;-56
2024/04/22 07:42:38;;;;;;;5.75;1.70;;;;;;;;;;5391666;26;20280;-57
2024/04/22 07:45:04;;;;;;;4.55;1.63;;;;;;;;;;5392581;26;19996;-54
2024/04/22 07:47:29;;;;;;;7.55;1.60;;;;;;;;;;5386239;26;20043;-54
2024/04/22 07:49:54;;;;;;;4.67;1.90;;;;;;;;;;5385900;26;20048;-55
2024/04/22 07:52:20;;;;;;;6.00;1.80;;;;;;;;;;5375617;26;20025;-56
2024/04/22 07:54:46;;;;;;;5.53;1.90;;;;;;;;;;5383448;26;19997;-57
2024/04/22 07:57:11;;;;;;;3.53;1.75;;;;;;;;;;5377583;26;20253;-56
2024/04/22 07:59:37;;;;;;;8.98;1.65;;;;;;;;;;5388578;26;20008;-54
2024/04/22 08:02:03;;;;;;;6.43;1.77;;;;;;;;;;5392416;26;20019;-55
2024/04/22 08:04:28;;;;;;;5.07;1.75;;;;;;;;;;5394471;26;20293;-58
2024/04/22 08:06:56;;;;;;;9.73;1.87;;;;;;;;;;5393127;26;20020;-57
2024/04/22 08:09:22;;;;;;;6.97;1.80;;;;;;;;;;5388839;26;20004;-56
2024/04/22 08:11:47;;;;;;;6.73;2.60;;;;;;;;;;5388749;26;20278;-57
2024/04/22 08:14:13;;;;;;;5.97;1.58;;;;;;;;;;5393176;26;20004;-56
2024/04/22 08:16:39;;;;;;;5.72;2.08;;;;;;;;;;5391423;26;20004;-58
2024/04/22 08:19:04;;;;;;;7.05;1.65;;;;;;;;;;5392327;26;20058;-54
2024/04/22 08:21:30;;;;;;;7.07;1.80;;;;;;;;;;5392386;26;20012;-58
2024/04/22 08:23:55;;;;;;;5.80;1.70;;;;;;;;;;5389141;26;20059;-57
2024/04/22 08:26:20;;;;;;;9.33;2.17;;;;;;;;;;5390012;26;20042;-56
2024/04/22 08:28:45;;;;;;;4.33;1.90;;;;;;;;;;5392139;26;20062;-56
2024/04/22 08:31:11;;;;;;;3.78;1.83;;;;;;;;;;5388514;26;20239;-55
2024/04/22 08:33:36;;;;;;;8.75;1.58;;;;;;;;;;5392451;26;20021;-58
2024/04/22 08:36:02;;;;;;;7.57;2.30;;;;;;;;;;5392310;26;20000;-59
2024/04/22 08:38:28;;;;;;;4.90;1.67;;;;;;;;;;5389785;26;20011;-57
2024/04/22 08:40:53;;;;;;;6.38;2.15;;;;;;;;;;5387970;26;20004;-58
2024/04/22 08:43:19;;;;;;;6.40;1.77;;;;;;;;;;5393474;26;20008;-56
2024/04/22 08:45:47;;;;;;;10.77;1.70;;;;;;;;;;5389245;26;20005;-59
2024/04/22 08:48:13;;;;;;;9.23;2.23;;;;;;;;;;5391194;26;20024;-58
2024/04/22 08:50:39;;;;;;;4.13;1.80;;;;;;;;;;5390372;26;20238;-54
2024/04/22 08:53:07;;;;;;;4.13;1.65;;;;;;;;;;5390459;26;20008;-56
2024/04/22 08:55:33;;;;;;;4.93;1.53;;;;;;;;;;5394778;26;20071;-56
2024/04/22 08:57:59;;;;;;;7.90;1.73;;;;;;;;;;5391160;26;20267;-53
2024/04/22 09:00:24;;;;;;;16.15;2.05;;;;;;;;;;5391455;26;20016;-56
2024/04/22 09:02:50;;;;;;;6.63;2.17;;;;;;;;;;5393389;26;20015;-55
2024/04/22 09:05:16;;;;;;;8.77;1.60;;;;;;;;;;5394921;26;20019;-57
2024/04/22 09:07:51;;;;;;;7.80;1.90;;;;;;;;;;5390726;26;20221;-58
2024/04/22 09:10:17;;;;;;;3.63;1.57;;;;;;;;;;5388961;26;20023;-56
2024/04/22 09:12:42;;;;;;;3.88;1.83;;;;;;;;;;5393864;26;20000;-55
2024/04/22 09:15:07;;;;;;;9.18;2.58;;;;;;;;;;5392313;26;20000;-56
2024/04/22 09:17:33;;;;;;;4.33;1.77;;;;;;;;;;5393354;26;20023;-56
2024/04/22 09:19:58;;;;;;;7.60;1.93;;;;;;;;;;5391354;26;20004;-58
2024/04/22 09:22:23;;;;;;;14.90;1.60;;;;;;;;;;5394004;26;20027;-57
2024/04/22 09:24:49;;;;;;;9.53;1.83;;;;;;;;;;5391146;26;20227;-60
2024/04/22 09:27:15;;;;;;;8.95;1.70;;;;;;;;;;5390377;26;19996;-58
2024/04/22 09:29:42;;;;;;;8.25;1.63;;;;;;;;;;5392481;26;20031;-56
2024/04/22 09:32:10;;;;;;;7.40;1.67;;;;;;;;;;5391527;26;20016;-57
2024/04/22 09:34:39;;;;;;;6.17;1.60;;;;;;;;;;5388609;26;20008;-57
2024/04/22 09:37:04;;;;;;;8.43;1.83;;;;;;;;;;5390757;26;20730;-57
2024/04/22 09:39:31;;;;;;;4.38;1.38;;;;;;;;;;5388815;26;20036;-58
2024/04/22 09:41:56;;;;;;;8.17;1.53;;;;;;;;;;5389567;26;20000;-59
2024/04/22 09:44:22;;;;;;;8.48;1.67;;;;;;;;;;5390191;26;20172;-58
2024/04/22 09:46:50;;;;;;;6.53;1.65;;;;;;;;;;5392660;26;20066;-60
2024/04/22 09:49:17;;;;;;;3.33;1.47;;;;;;;;;;5386670;26;20001;-57
2024/04/22 09:51:43;;;;;;;6.23;1.70;;;;;;;;;;5393865;26;20016;-57
2024/04/22 09:54:09;;;;;;;6.80;1.47;;;;;;;;;;5390258;26;19996;-59
2024/04/22 09:56:35;;;;;;;4.35;1.48;;;;;;;;;;5391690;26;20015;-57
2024/04/22 09:59:00;;;;;;;;;;;;;;;;;;5391435;26;20004;-58
2024/04/22 10:01:25;;;;;;;4.27;1.20;;;;;;;;;;5390891;26;19925;-57
2024/04/22 10:03:51;;;;;;;3.03;1.20;;;;;;;;;;5391799;26;20020;-58
2024/04/22 10:06:18;;;;;;;14.27;1.67;;;;;;;;;;5386935;26;20000;-57
2024/04/22 10:08:43;;;;;;;6.20;1.77;;;;;;;;;;5388771;26;20000;-56
2024/04/22 10:11:10;;;;;;;3.85;1.92;;;;;;;;;;5391102;26;20007;-56
2024/04/22 10:13:36;;;;;;;4.00;1.73;;;;;;;;;;5384051;26;20020;-56
2024/04/22 10:16:01;;;;;;;4.00;1.50;;;;;;;;;;5390575;26;20004;-57
2024/04/22 10:18:27;;;;;;;4.20;1.67;;;;;;;;;;5359206;26;20065;-55
2024/04/22 10:20:58;;;;;;;3.15;1.95;;;;;;;;;;5388368;26;20062;-57
2024/04/22 10:23:25;;;;;;;8.47;2.00;;;;;;;;;;5388914;26;20000;-56
2024/04/22 10:25:50;;;;;;;6.00;1.70;;;;;;;;;;5389188;26;20015;-56
2024/04/22 10:28:16;;;;;;;4.85;2.17;;;;;;;;;;5387967;26;19997;-57
2024/04/22 10:30:41;;;;;;;9.57;2.27;;;;;;;;;;5391201;26;20066;-57
2024/04/22 10:33:07;;;;;;;5.90;2.28;;;;;;;;;;5388679;26;20271;-54
2024/04/22 10:35:32;;;;;;;5.40;2.00;;;;;;;;;;5387007;26;19997;-56
2024/04/22 10:37:58;;;;;;;8.70;3.10;;;;;;;;;;5389613;26;20000;-57
2024/04/22 10:40:24;;;;;;;6.75;2.55;;;;;;;;;;5391851;26;20015;-55
2024/04/22 10:42:50;;;;;;;4.90;2.08;;;;;;;;;;5390463;26;20008;-56
2024/04/22 10:45:16;;;;;;;3.25;1.75;;;;;;;;;;5390925;26;20050;-51
2024/04/22 10:47:42;;;;;;;3.50;2.10;;;;;;;;;;5361792;26;20016;-56
2024/04/22 10:50:17;;;;;;;5.22;1.98;;;;;;;;;;5395622;26;19996;-55
2024/04/22 10:52:43;;;;;;;5.83;2.27;;;;;;;;;;5387713;26;20002;-56
2024/04/22 10:55:09;;;;;;;5.45;2.33;;;;;;;;;;5394296;26;20301;-57
2024/04/22 10:57:35;;;;;;;6.82;1.90;;;;;;;;;;5389723;26;20019;-56
2024/04/22 11:00:01;;;;;;;9.82;3.20;;;;;;;;;;5391811;26;20004;-58
2024/04/22 11:02:27;;;;;;;7.05;3.47;;;;;;;;;;5372235;26;20001;-55
2024/04/22 11:04:53;;;;;;;10.95;2.80;;;;;;;;;;5369460;26;20015;-56
2024/04/22 11:07:19;;;;;;;5.60;2.17;;;;;;;;;;5385765;26;20025;-58
2024/04/22 11:09:45;;;;;;;3.78;1.80;;;;;;;;;;5379275;26;20227;-55
2024/04/22 11:12:10;;;;;;;5.32;1.83;;;;;;;;;;5379660;26;20012;-59
2024/04/22 11:14:36;;;;;;;5.47;1.85;;;;;;;;;;5382376;26;20018;-56
2024/04/22 11:17:01;;;;;;;10.50;3.87;;;;;;;;;;5385372;26;20001;-57
2024/04/22 11:19:27;;;;;;;5.55;2.80;;;;;;;;;;5391565;26;20015;-53
2024/04/22 11:21:52;;;;;;;4.13;2.30;;;;;;;;;;5390314;26;20012;-58
2024/04/22 11:24:17;;;;;;;6.17;2.10;;;;;;;;;;5394718;26;20004;-57
2024/04/22 11:26:42;;;;;;;4.80;1.60;;;;;;;;;;5391579;26;20063;-54
2024/04/22 11:29:09;;;;;;;4.97;1.73;;;;;;;;;;5391310;26;20007;-58
2024/04/22 11:31:38;;;;;;;12.40;1.77;;;;;;;;;;5388711;26;20024;-54
2024/04/22 11:34:07;;;;;;;4.17;2.00;;;;;;;;;;5389627;26;20012;-56
2024/04/22 11:36:34;;;;;;;7.73;2.40;;;;;;;;;;5387482;26;20016;-57
2024/04/22 11:39:12;;;;;;;2.77;1.33;;;;;;;;;;5391831;26;20378;-56
2024/04/22 11:41:38;;;;;;;3.10;1.57;;;;;;;;;;5390059;26;20020;-56
2024/04/22 11:44:04;;;;;;;3.10;1.70;;;;;;;;;;5389813;26;20238;-56
2024/04/22 11:46:29;;;;;;;6.53;1.83;;;;;;;;;;5385044;26;20015;-55
2024/04/22 11:48:55;;;;;;;3.80;2.00;;;;;;;;;;5380804;26;20005;-54
2024/04/22 11:51:20;;;;;;;3.10;1.50;;;;;;;;;;5375899;26;20007;-53
2024/04/22 11:53:45;;;;;;;4.28;1.55;;;;;;;;;;5367404;26;20001;-55
2024/04/22 11:56:11;;;;;;;3.92;1.75;;;;;;;;;;5381693;26;20009;-55
2024/04/22 11:58:36;;;;;;;6.38;1.80;;;;;;;;;;5377883;26;20039;-55
2024/04/22 12:01:03;;;;;;;4.63;1.70;;;;;;;;;;5375667;26;20008;-55
2024/04/22 12:03:28;;;;;;;6.18;1.75;;;;;;;;;;5373879;26;20017;-57
2024/04/22 12:05:54;;;;;;;3.67;1.65;;;;;;;;;;5386506;26;20008;-55
2024/04/22 12:08:19;;;;;;;3.13;1.67;;;;;;;;;;5386750;26;20013;-56
2024/04/22 12:10:45;;;;;;;5.20;2.15;;;;;;;;;;5392598;26;20005;-57
2024/04/22 12:13:10;;;;;;;4.37;2.40;;;;;;;;;;5390385;26;20020;-57
2024/04/22 12:15:36;;;;;;;4.80;1.98;;;;;;;;;;5382115;26;20227;-58
2024/04/22 12:18:01;;;;;;;3.40;1.70;;;;;;;;;;5380615;26;19997;-56
2024/04/22 12:20:27;;;;;;;6.00;1.88;;;;;;;;;;5389358;26;19996;-57
2024/04/22 12:22:52;;;;;;;2.53;1.60;;;;;;;;;;5390482;26;19996;-56
2024/04/22 12:25:17;;;;;;;5.43;1.77;;;;;;;;;;5390628;26;20055;-55
2024/04/22 12:27:42;;;;;;;2.60;1.50;;;;;;;;;;5391788;26;20243;-56
2024/04/22 12:30:09;;;;;;;4.53;2.08;;;;;;;;;;5393089;26;20023;-57
2024/04/22 12:32:35;;;;;;;4.78;1.80;;;;;;;;;;5392555;26;20000;-56
2024/04/22 12:35:02;;;;;;;5.33;2.23;;;;;;;;;;5392701;26;20026;-55
2024/04/22 12:37:29;;;;;;;6.27;1.63;;;;;;;;;;5392867;26;20012;-56
2024/04/22 12:39:55;;;;;;;5.80;2.10;;;;;;;;;;5387237;26;20000;-53
2024/04/22 12:42:20;;;;;;;;;;;;;;;;;;5388580;26;20000;-60
2024/04/22 12:44:46;;;;;;;6.15;2.20;;;;;;;;;;5391845;26;19972;-55
2024/04/22 12:52:39;;;;;;;6.40;2.20;;;;;;;;;;5373181;26;20062;-56
2024/04/22 12:55:04;;;;;;;6.77;2.87;;;;;;;;;;5394010;26;20004;-57
2024/04/22 12:57:29;;;;;;;3.42;2.08;;;;;;;;;;5389671;26;20000;-56
2024/04/22 12:59:58;;;;;;;5.63;2.00;;;;;;;;;;5389955;26;20035;-59
2024/04/22 13:02:24;;;;;;;3.87;2.30;;;;;;;;;;5390255;26;20004;-57
2024/04/22 13:04:50;;;;;;;4.10;2.15;;;;;;;;;;5391650;26;20018;-55
2024/04/22 13:07:15;;;;;;;;;;;;;;;;;;5390190;26;20008;-58
2024/04/22 13:09:40;;;;;;;4.42;2.40;;;;;;;;;;5389754;26;19933;-57
2024/04/22 13:12:06;;;;;;;5.28;2.72;;;;;;;;;;5389941;26;20000;-58
2024/04/22 13:14:31;;;;;;;6.95;2.22;;;;;;;;;;5386106;26;19997;-56
2024/04/22 13:16:57;;;;;;;3.35;1.80;;;;;;;;;;5379530;26;20011;-58
2024/04/22 13:19:22;;;;;;;2.38;1.50;;;;;;;;;;5390942;26;20015;-57
2024/04/22 13:21:48;;;;;;;4.10;1.80;;;;;;;;;;5385886;26;20000;-55
2024/04/22 13:24:13;;;;;;;;;;;;;;;;;;5374927;26;20050;-55
2024/04/22 13:26:38;;;;;;;4.83;1.90;;;;;;;;;;5377692;26;19932;-58
2024/04/22 13:29:04;;;;;;;;;;;;;;;;;;5388843;26;19996;-60
2024/04/22 13:31:30;;;;;;;4.43;1.77;;;;;;;;;;5392187;26;19922;-59
2024/04/22 13:33:55;;;;;;;4.53;2.22;;;;;;;;;;5391558;26;20058;-57
2024/04/22 13:36:20;;;;;;;2.47;1.40;;;;;;;;;;5390680;26;20024;-59
2024/04/22 13:38:46;;;;;;;2.78;1.40;;;;;;;;;;5391921;26;20000;-58
2024/04/22 13:41:11;;;;;;;4.10;1.98;;;;;;;;;;5393587;26;19996;-58
2024/04/22 13:43:36;;;;;;;6.57;2.67;;;;;;;;;;5389031;26;20001;-59
2024/04/22 13:46:02;;;;;;;5.50;2.17;;;;;;;;;;5388079;26;20008;-58
2024/04/22 13:48:27;;;;;;;2.80;1.42;;;;;;;;;;5390947;26;20000;-61
2024/04/22 13:50:53;;;;;;;4.03;1.33;;;;;;;;;;5383768;26;20011;-59
2024/04/22 13:53:19;;;;;;;3.90;1.45;;;;;;;;;;5384956;26;20036;-57
2024/04/22 13:55:44;;;;;;;4.15;1.55;;;;;;;;;;5388464;26;20004;-59
2024/04/22 13:58:10;;;;;;;5.40;2.13;;;;;;;;;;5388188;26;20073;-60
2024/04/22 14:00:35;;;;;;;3.78;1.27;;;;;;;;;;5380024;26;20205;-58
2024/04/22 14:03:01;;;;;;;2.55;1.25;;;;;;;;;;5384432;26;20000;-60
2024/04/22 14:05:27;;;;;;;2.85;1.20;;;;;;;;;;5391598;26;20004;-59
2024/04/22 14:07:53;;;;;;;5.60;1.10;;;;;;;;;;5357771;26;20000;-59
2024/04/22 14:10:18;;;;;;;5.60;1.80;;;;;;;;;;5386508;26;20014;-57
2024/04/22 14:12:44;;;;;;;1.88;1.20;;;;;;;;;;5386149;26;21291;-60
2024/04/22 14:15:10;;;;;;;7.40;1.80;;;;;;;;;;5378227;26;20465;-57
2024/04/22 14:17:38;;;;;;;3.92;1.40;;;;;;;;;;5381019;26;20042;-58
2024/04/22 14:20:05;;;;;;;3.95;1.25;;;;;;;;;;5388295;26;19996;-58
2024/04/22 14:22:31;;;;;;;5.15;1.58;;;;;;;;;;5374740;26;19993;-57
2024/04/22 14:24:56;;;;;;;3.08;1.27;;;;;;;;;;5374026;26;20011;-56
2024/04/22 14:27:22;;;;;;;2.78;1.33;;;;;;;;;;5373479;26;19996;-59
2024/04/22 14:29:47;;;;;;;3.75;1.05;;;;;;;;;;5375344;26;20003;-58
2024/04/22 14:32:12;;;;;;;3.42;1.40;;;;;;;;;;5372958;26;21356;-58
2024/04/22 14:34:38;;;;;;;2.45;1.25;;;;;;;;;;5373203;26;20008;-58
2024/04/22 14:37:03;;;;;;;3.70;1.15;;;;;;;;;;5377634;26;20011;-59
2024/04/22 14:39:29;;;;;;;3.35;1.52;;;;;;;;;;5390358;26;19996;-58
2024/04/22 14:41:54;;;;;;;3.53;1.75;;;;;;;;;;5360470;26;20015;-60
2024/04/22 14:44:20;;;;;;;3.05;1.40;;;;;;;;;;5392102;26;20008;-58
2024/04/22 14:46:45;;;;;;;4.15;1.67;;;;;;;;;;5391718;26;20004;-61